createdAt,value
2018-09-22T00:01:14.200Z,98828.86
2018-09-22T00:03:42.604Z,98829.79
2018-09-22T00:06:10.951Z,98833.55
2018-09-22T00:08:39.304Z,98840.66
2018-09-22T00:11:07.677Z,98852.19
2018-09-22T00:13:36.063Z,98846.70
2018-09-22T00:16:04.449Z,98852.14
2018-09-22T00:18:32.789Z,98851.04
2018-09-22T00:21:01.356Z,98858.20
2018-09-22T00:23:29.680Z,98856.55
2018-09-22T00:25:58.546Z,98856.23
2018-09-22T00:28:26.859Z,98849.52
2018-09-22T00:30:55.148Z,98856.17
2018-09-22T00:33:23.468Z,98862.95
2018-09-22T00:35:51.846Z,98874.47
2018-09-22T00:38:20.108Z,98872.91
2018-09-22T00:40:48.506Z,98865.53
2018-09-22T00:43:17.053Z,98865.55
2018-09-22T00:45:45.347Z,98867.72
2018-09-22T00:48:13.788Z,98869.70
2018-09-22T00:50:42.193Z,98871.16
2018-09-22T00:53:10.671Z,98870.61
2018-09-22T00:55:39.004Z,98865.33
2018-09-22T00:58:07.308Z,98871.36
2018-09-22T01:00:35.673Z,98868.30
2018-09-22T01:03:04.153Z,98872.89
2018-09-22T01:05:32.483Z,98883.73
2018-09-22T01:08:00.756Z,98888.63
2018-09-22T01:10:29.191Z,98907.53
2018-09-22T01:12:57.484Z,98902.48
2018-09-22T01:15:25.888Z,98900.05
2018-09-22T01:17:54.274Z,98918.51
2018-09-22T01:20:22.732Z,98915.98
2018-09-22T01:22:51.150Z,98917.87
2018-09-22T01:25:19.531Z,98912.97
2018-09-22T01:27:47.882Z,98912.67
2018-09-22T01:30:16.228Z,98920.99
2018-09-22T01:32:44.617Z,98925.75
2018-09-22T01:35:12.908Z,98926.55
2018-09-22T01:37:41.472Z,98923.97
2018-09-22T01:40:09.880Z,98937.47
2018-09-22T01:42:38.212Z,98925.92
2018-09-22T01:45:06.565Z,98932.31
2018-09-22T01:47:34.864Z,98926.95
2018-09-22T01:50:03.209Z,98916.66
2018-09-22T01:52:31.624Z,98925.41
2018-09-22T01:54:59.875Z,98922.30
2018-09-22T01:57:28.166Z,98927.80
2018-09-22T01:59:57.071Z,98935.41
2018-09-22T02:02:25.407Z,98928.92
2018-09-22T02:04:53.720Z,98921.11
2018-09-22T02:07:22.107Z,98923.95
2018-09-22T02:09:50.443Z,98932.11
2018-09-22T02:12:18.829Z,98933.80
2018-09-22T02:14:47.183Z,98931.29
2018-09-22T02:17:15.510Z,98922.27
2018-09-22T02:19:43.951Z,98907.16
2018-09-22T02:22:12.582Z,98907.23
2018-09-22T02:24:40.901Z,98908.51
2018-09-22T02:27:09.347Z,98898.53
2018-09-22T02:29:37.658Z,98895.09
2018-09-22T02:32:06.047Z,98896.20
2018-09-22T02:34:34.441Z,98904.37
2018-09-22T02:37:03.498Z,98915.05
2018-09-22T02:39:31.754Z,98913.75
2018-09-22T02:42:00.210Z,98941.39
2018-09-22T02:44:28.542Z,98943.19
2018-09-22T02:46:56.892Z,98943.48
2018-09-22T02:49:25.303Z,98949.83
2018-09-22T02:51:53.941Z,98960.25
2018-09-22T02:54:22.372Z,98952.29
2018-09-22T02:56:50.714Z,98939.88
2018-09-22T02:59:19.262Z,98931.36
2018-09-22T03:01:47.591Z,98948.74
2018-09-22T03:04:15.892Z,98960.69
2018-09-22T03:06:44.411Z,98961.44
2018-09-22T03:09:12.637Z,98959.70
2018-09-22T03:11:40.973Z,98964.65
2018-09-22T03:14:09.643Z,98959.41
2018-09-22T03:16:38.027Z,98953.47
2018-09-22T03:19:06.561Z,98938.75
2018-09-22T03:21:34.894Z,98944.52
2018-09-22T03:24:03.272Z,98947.81
2018-09-22T03:26:36.636Z,98950.40
2018-09-22T03:29:05.446Z,98953.59
2018-09-22T03:31:33.925Z,98956.84
2018-09-22T03:34:02.206Z,98956.27
2018-09-22T03:36:30.633Z,98951.44
2018-09-22T03:38:59.084Z,98948.94
2018-09-22T03:41:27.449Z,98952.87
2018-09-22T03:43:55.714Z,98960.92
2018-09-22T03:46:24.058Z,98975.81
2018-09-22T03:48:52.391Z,98980.37
2018-09-22T03:51:20.842Z,98961.45
2018-09-22T03:53:49.180Z,98964.73
2018-09-22T03:56:17.580Z,98972.91
2018-09-22T03:58:45.841Z,98972.91
2018-09-22T04:01:14.214Z,98970.38
2018-09-22T04:03:42.491Z,98957.17
2018-09-22T04:06:11.388Z,98957.60
2018-09-22T04:08:39.654Z,98956.81
2018-09-22T04:11:07.945Z,98949.92
2018-09-22T04:13:36.301Z,98950.48
2018-09-22T04:16:04.703Z,98945.42
2018-09-22T04:18:32.946Z,98950.22
2018-09-22T04:21:01.215Z,98946.59
2018-09-22T04:23:29.707Z,98960.20
2018-09-22T04:25:58.134Z,98958.89
2018-09-22T04:28:26.494Z,98949.89
2018-09-22T04:30:54.820Z,98947.30
2018-09-22T04:33:23.151Z,98946.59
2018-09-22T04:35:51.483Z,98951.20
2018-09-22T04:38:19.804Z,98956.27
2018-09-22T04:40:48.343Z,98968.12
2018-09-22T04:43:16.671Z,98967.59
2018-09-22T04:45:44.932Z,98971.70
2018-09-22T04:48:13.422Z,98970.27
2018-09-22T04:50:41.756Z,98969.75
2018-09-22T04:53:10.181Z,98972.75
2018-09-22T04:55:38.512Z,98977.73
2018-09-22T04:58:07.093Z,98977.16
2018-09-22T05:00:35.497Z,98985.40
2018-09-22T05:03:03.836Z,98980.13
2018-09-22T05:05:32.248Z,98962.66
2018-09-22T05:08:00.552Z,98969.36
2018-09-22T05:10:28.946Z,98970.75
2018-09-22T05:12:57.289Z,98976.53
2018-09-22T05:15:25.620Z,98977.54
2018-09-22T05:17:53.932Z,98973.51
2018-09-22T05:20:22.244Z,98975.58
2018-09-22T05:22:50.664Z,98973.23
2018-09-22T05:25:19.052Z,98970.75
2018-09-22T05:27:47.493Z,98972.47
2018-09-22T05:30:15.844Z,98978.92
2018-09-22T05:32:44.245Z,98980.22
2018-09-22T05:35:12.788Z,98981.04
2018-09-22T05:37:41.181Z,98981.34
2018-09-22T05:40:09.534Z,98990.51
2018-09-22T05:42:37.982Z,98993.37
2018-09-22T05:45:06.916Z,99003.60
2018-09-22T05:47:35.354Z,99005.38
2018-09-22T05:50:03.691Z,99008.22
2018-09-22T05:52:32.080Z,99012.78
2018-09-22T05:55:00.483Z,99010.51
2018-09-22T05:57:28.771Z,99013.45
2018-09-22T05:59:57.112Z,99022.08
2018-09-22T06:02:25.515Z,99019.13
2018-09-22T06:04:54.636Z,99014.11
2018-09-22T06:07:22.995Z,99009.47
2018-09-22T06:09:52.281Z,99013.35
2018-09-22T06:12:20.886Z,99007.60
2018-09-22T06:14:49.200Z,99000.83
2018-09-22T06:17:17.552Z,99007.06
2018-09-22T06:19:46.193Z,99011.87
2018-09-22T06:22:14.494Z,99011.66
2018-09-22T06:24:42.914Z,99013.72
2018-09-22T06:27:11.515Z,99020.05
2018-09-22T06:29:39.820Z,99022.16
2018-09-22T06:32:08.417Z,99024.08
2018-09-22T06:34:36.977Z,99029.34
2018-09-22T06:37:05.863Z,99030.33
2018-09-22T06:39:34.214Z,99046.75
2018-09-22T06:42:02.666Z,99050.75
2018-09-22T06:44:31.003Z,99050.31
2018-09-22T06:46:59.254Z,99051.62
2018-09-22T06:49:27.652Z,99058.52
2018-09-22T06:51:56.023Z,99045.39
2018-09-22T06:54:24.330Z,99050.03
2018-09-22T06:56:52.810Z,99040.37
2018-09-22T06:59:21.094Z,99049.73
2018-09-22T07:01:49.357Z,99052.00
2018-09-22T07:04:17.729Z,99053.25
2018-09-22T07:06:46.201Z,99058.88
2018-09-22T07:09:14.580Z,99069.83
2018-09-22T07:11:42.891Z,99080.23
2018-09-22T07:14:11.176Z,99072.88
2018-09-22T07:16:39.736Z,99073.48
2018-09-22T07:19:08.178Z,99069.55
2018-09-22T07:21:41.888Z,99074.34
2018-09-22T07:24:10.217Z,99067.28
2018-09-22T07:26:38.583Z,99076.66
2018-09-22T07:29:06.916Z,99075.44
2018-09-22T07:31:35.626Z,99066.05
2018-09-22T07:34:03.952Z,99057.47
2018-09-22T07:36:32.343Z,99061.76
2018-09-22T07:39:00.700Z,99063.16
2018-09-22T07:41:29.076Z,99058.26
2018-09-22T07:43:57.429Z,99051.87
2018-09-22T07:46:25.836Z,99062.42
2018-09-22T07:48:54.264Z,99063.06
2018-09-22T07:51:22.570Z,99054.83
2018-09-22T07:53:50.856Z,99060.53
2018-09-22T07:56:19.225Z,99060.39
2018-09-22T07:58:47.820Z,99068.31
2018-09-22T08:01:16.138Z,99063.98
2018-09-22T08:03:44.552Z,99057.51
2018-09-22T08:06:12.918Z,99059.09
2018-09-22T08:08:41.264Z,99055.03
2018-09-22T08:11:09.914Z,99056.81
2018-09-22T08:13:38.404Z,99048.53
2018-09-22T08:16:07.182Z,99043.30
2018-09-22T08:18:35.705Z,99042.78
2018-09-22T08:21:04.133Z,99041.91
2018-09-22T08:23:32.460Z,99041.61
2018-09-22T08:26:00.901Z,99047.03
2018-09-22T08:28:29.425Z,99045.52
2018-09-22T08:30:57.732Z,99058.25
2018-09-22T08:33:26.160Z,99049.20
2018-09-22T08:35:54.904Z,99052.98
2018-09-22T08:38:23.266Z,99052.17
2018-09-22T08:40:51.592Z,99051.34
2018-09-22T08:43:20.041Z,99051.47
2018-09-22T08:45:48.418Z,99059.62
2018-09-22T08:48:16.980Z,99062.70
2018-09-22T08:50:45.396Z,99055.03
2018-09-22T08:53:13.825Z,99049.67
2018-09-22T08:55:42.339Z,99065.44
2018-09-22T08:58:10.783Z,99063.86
2018-09-22T09:00:39.359Z,99058.44
2018-09-22T09:03:07.883Z,99061.78
2018-09-22T09:05:36.316Z,99064.33
2018-09-22T09:08:04.788Z,99068.06
2018-09-22T09:10:33.173Z,99069.63
2018-09-22T09:13:01.863Z,99062.59
2018-09-22T09:15:30.160Z,99064.55
2018-09-22T09:17:58.764Z,99065.28
2018-09-22T09:20:27.366Z,99062.53
2018-09-22T09:22:55.803Z,99073.28
2018-09-22T09:25:24.416Z,99065.28
2018-09-22T09:27:52.837Z,99061.75
2018-09-22T09:30:21.221Z,99078.02
2018-09-22T09:32:49.730Z,99080.08
2018-09-22T09:35:18.510Z,99087.98
2018-09-22T09:37:46.840Z,99077.53
2018-09-22T09:40:15.350Z,99066.17
2018-09-22T09:42:44.663Z,99057.02
2018-09-22T09:45:13.125Z,99055.05
2018-09-22T09:47:41.869Z,99059.78
2018-09-22T09:50:10.170Z,99052.84
2018-09-22T09:52:38.535Z,99040.73
2018-09-22T09:55:07.059Z,99036.23
2018-09-22T09:57:35.383Z,99029.38
2018-09-22T10:00:03.901Z,99024.67
2018-09-22T10:02:34.008Z,99015.21
2018-09-22T10:05:02.665Z,99020.13
2018-09-22T10:07:30.979Z,99012.31
2018-09-22T10:09:59.288Z,99003.88
2018-09-22T10:12:27.625Z,98993.61
2018-09-22T10:14:56.062Z,99001.37
2018-09-22T10:17:24.629Z,98991.30
2018-09-22T10:19:53.072Z,98992.52
2018-09-22T10:22:22.029Z,99003.59
2018-09-22T10:24:50.474Z,99002.48
2018-09-22T10:27:19.429Z,99004.07
2018-09-22T10:29:48.285Z,98989.97
2018-09-22T10:32:17.314Z,98971.61
2018-09-22T10:34:45.829Z,98968.20
2018-09-22T10:37:14.225Z,98973.78
2018-09-22T10:39:42.722Z,98976.28
2018-09-22T10:42:11.118Z,98980.26
2018-09-22T10:44:40.245Z,98981.81
2018-09-22T10:47:09.026Z,98982.88
2018-09-22T10:49:37.463Z,98975.77
2018-09-22T10:52:05.926Z,98958.77
2018-09-22T10:54:34.374Z,98962.67
2018-09-22T10:57:02.796Z,98963.72
2018-09-22T10:59:33.282Z,98964.56
2018-09-22T11:02:02.082Z,98959.33
2018-09-22T11:04:30.475Z,98965.12
2018-09-22T11:06:59.018Z,98963.66
2018-09-22T11:09:27.891Z,98965.59
2018-09-22T11:11:56.447Z,98963.81
2018-09-22T11:14:24.800Z,98967.95
2018-09-22T11:16:53.094Z,98961.73
2018-09-22T11:19:21.387Z,98962.59
2018-09-22T11:21:50.029Z,98948.23
2018-09-22T11:24:18.496Z,98951.27
2018-09-22T11:26:47.810Z,98943.91
2018-09-22T11:29:16.262Z,98933.84
2018-09-22T11:31:44.530Z,98921.31
2018-09-22T11:34:12.801Z,98926.70
2018-09-22T11:36:41.353Z,98919.19
2018-09-22T11:39:10.518Z,98901.78
2018-09-22T11:41:39.302Z,98893.36
2018-09-22T11:44:07.876Z,98892.02
2018-09-22T11:46:36.380Z,98884.66
2018-09-22T11:49:06.842Z,98881.22
2018-09-22T11:51:35.634Z,98870.20
2018-09-22T11:54:04.343Z,98868.02
2018-09-22T11:56:32.798Z,98870.06
2018-09-22T11:59:01.282Z,98867.63
2018-09-22T12:01:30.816Z,98864.72
2018-09-22T12:03:59.716Z,98869.47
2018-09-22T12:06:28.253Z,98867.24
2018-09-22T12:08:56.582Z,98863.80
2018-09-22T12:11:24.890Z,98865.23
2018-09-22T12:13:53.394Z,98864.20
2018-09-22T12:16:21.728Z,98878.18
2018-09-22T12:18:50.392Z,98862.43
2018-09-22T12:21:18.897Z,98877.46
2018-09-22T12:23:47.958Z,98874.82
2018-09-22T12:26:16.475Z,98858.17
2018-09-22T12:28:45.426Z,98854.20
2018-09-22T12:31:13.893Z,98851.66
2018-09-22T12:33:42.308Z,98849.22
2018-09-22T12:36:11.266Z,98851.84
2018-09-22T12:38:50.782Z,98842.67
2018-09-22T12:41:19.499Z,98833.55
2018-09-22T12:43:48.130Z,98831.22
2018-09-22T12:46:16.568Z,98843.39
2018-09-22T12:48:44.988Z,98827.79
2018-09-22T12:51:13.548Z,98810.56
2018-09-22T12:53:42.919Z,98806.65
2018-09-22T12:56:11.206Z,98802.34
2018-09-22T12:58:39.506Z,98814.44
2018-09-22T13:01:07.822Z,98821.56
2018-09-22T13:03:37.422Z,98805.16
2018-09-22T13:06:06.021Z,98799.73
2018-09-22T13:08:34.445Z,98792.77
2018-09-22T13:11:02.810Z,98778.69
2018-09-22T13:13:31.457Z,98766.06
2018-09-22T13:15:59.855Z,98766.95
2018-09-22T13:18:28.138Z,98747.41
2018-09-22T13:20:56.471Z,98743.63
2018-09-22T13:23:24.755Z,98749.26
2018-09-22T13:25:53.156Z,98742.98
2018-09-22T13:28:21.565Z,98743.20
2018-09-22T13:30:49.920Z,98756.78
2018-09-22T13:33:18.316Z,98763.94
2018-09-22T13:35:46.750Z,98769.34
2018-09-22T13:38:15.383Z,98768.80
2018-09-22T13:40:43.682Z,98763.80
2018-09-22T13:43:12.354Z,98766.24
2018-09-22T13:45:40.812Z,98772.92
2018-09-22T13:48:09.225Z,98765.14
2018-09-22T13:50:37.601Z,98755.55
2018-09-22T13:53:06.292Z,98751.55
2018-09-22T13:55:34.648Z,98742.97
2018-09-22T13:58:03.108Z,98737.98
2018-09-22T14:00:31.456Z,98745.81
2018-09-22T14:02:59.750Z,98741.76
2018-09-22T14:05:28.066Z,98745.63
2018-09-22T14:07:56.452Z,98745.61
2018-09-22T14:10:25.358Z,98737.28
2018-09-22T14:12:53.642Z,98739.20
2018-09-22T14:15:22.088Z,98743.59
2018-09-22T14:17:50.538Z,98737.23
2018-09-22T14:20:18.807Z,98738.23
2018-09-22T14:22:47.963Z,98745.41
2018-09-22T14:25:16.350Z,98756.59
2018-09-22T14:27:44.752Z,98754.91
2018-09-22T14:30:13.189Z,98756.43
2018-09-22T14:32:41.631Z,98751.00
2018-09-22T14:35:10.143Z,98741.30
2018-09-22T14:37:38.566Z,98725.31
2018-09-22T14:40:07.001Z,98714.91
2018-09-22T14:42:35.342Z,98707.77
2018-09-22T14:45:03.758Z,98711.81
2018-09-22T14:47:32.076Z,98700.15
2018-09-22T14:50:00.424Z,98693.58
2018-09-22T14:52:28.706Z,98698.27
2018-09-22T14:54:56.995Z,98712.99
2018-09-22T14:57:25.344Z,98719.42
2018-09-22T14:59:53.782Z,98732.00
2018-09-22T15:02:22.107Z,98728.59
2018-09-22T15:04:50.498Z,98723.09
2018-09-22T15:07:18.780Z,98728.37
2018-09-22T15:09:47.573Z,98730.11
2018-09-22T15:12:15.882Z,98721.42
2018-09-22T15:14:44.258Z,98717.10
2018-09-22T15:17:12.574Z,98705.91
2018-09-22T15:19:40.844Z,98699.18
2018-09-22T15:22:09.187Z,98680.00
2018-09-22T15:24:37.775Z,98678.50
2018-09-22T15:27:06.069Z,98675.20
2018-09-22T15:29:34.464Z,98677.67
2018-09-22T15:32:02.894Z,98688.48
2018-09-22T15:34:31.520Z,98689.80
2018-09-22T15:37:00.339Z,98705.21
2018-09-22T15:39:28.805Z,98710.19
2018-09-22T15:41:57.291Z,98715.00
2018-09-22T15:44:26.181Z,98706.81
2018-09-22T15:46:54.808Z,98689.86
2018-09-22T15:49:23.349Z,98697.89
2018-09-22T15:51:51.741Z,98692.48
2018-09-22T15:54:20.154Z,98695.42
2018-09-22T15:56:48.450Z,98693.66
2018-09-22T15:59:16.856Z,98686.26
2018-09-22T16:01:45.360Z,98678.47
2018-09-22T16:04:13.768Z,98676.80
2018-09-22T16:06:42.075Z,98675.41
2018-09-22T16:09:10.505Z,98679.42
2018-09-22T16:11:38.772Z,98673.96
2018-09-22T16:14:07.247Z,98671.70
2018-09-22T16:16:38.614Z,98664.62
2018-09-22T16:19:06.952Z,98665.61
2018-09-22T16:21:35.374Z,98664.14
2018-09-22T16:24:03.642Z,98662.55
2018-09-22T16:26:32.198Z,98661.98
2018-09-22T16:29:00.554Z,98667.19
2018-09-22T16:31:28.989Z,98664.84
2018-09-22T16:33:57.285Z,98673.77
2018-09-22T16:36:25.748Z,98675.05
2018-09-22T16:38:54.053Z,98688.95
2018-09-22T16:41:22.383Z,98680.83
2018-09-22T16:43:50.739Z,98678.83
2018-09-22T16:46:19.052Z,98687.17
2018-09-22T16:48:47.457Z,98676.11
2018-09-22T16:51:15.750Z,98669.07
2018-09-22T16:53:44.109Z,98667.52
2018-09-22T16:56:12.625Z,98660.52
2018-09-22T16:58:40.919Z,98669.70
2018-09-22T17:01:09.357Z,98670.63
2018-09-22T17:03:37.859Z,98674.06
2018-09-22T17:06:07.886Z,98678.47
2018-09-22T17:08:36.211Z,98689.39
2018-09-22T17:11:04.577Z,98686.11
2018-09-22T17:13:32.920Z,98689.18
2018-09-22T17:16:01.350Z,98686.73
2018-09-22T17:18:30.117Z,98697.71
2018-09-22T17:20:58.396Z,98708.73
2018-09-22T17:23:26.756Z,98700.44
2018-09-22T17:25:55.212Z,98687.62
2018-09-22T17:28:23.948Z,98690.44
2018-09-22T17:30:52.445Z,98684.95
2018-09-22T17:33:20.939Z,98680.00
2018-09-22T17:35:49.286Z,98684.21
2018-09-22T17:38:17.719Z,98681.75
2018-09-22T17:40:46.032Z,98685.25
2018-09-22T17:43:14.333Z,98683.80
2018-09-22T17:45:42.593Z,98686.30
2018-09-22T17:48:11.020Z,98690.22
2018-09-22T17:50:39.319Z,98700.20
2018-09-22T17:53:07.875Z,98705.88
2018-09-22T17:55:36.175Z,98709.89
2018-09-22T17:58:04.768Z,98708.83
2018-09-22T18:00:33.088Z,98706.13
2018-09-22T18:03:01.468Z,98698.25
2018-09-22T18:05:29.776Z,98699.83
2018-09-22T18:07:58.110Z,98694.45
2018-09-22T18:10:26.493Z,98697.25
2018-09-22T18:12:54.844Z,98688.70
2018-09-22T18:15:23.185Z,98685.97
2018-09-22T18:17:51.841Z,98684.11
2018-09-22T18:20:20.105Z,98691.79
2018-09-22T18:22:48.570Z,98695.00
2018-09-22T18:25:17.023Z,98696.19
2018-09-22T18:27:45.267Z,98697.78
2018-09-22T18:30:14.504Z,98692.78
2018-09-22T18:32:42.809Z,98700.76
2018-09-22T18:35:11.222Z,98704.95
2018-09-22T18:37:39.643Z,98693.52
2018-09-22T18:40:08.010Z,98697.25
2018-09-22T18:42:36.384Z,98686.27
2018-09-22T18:45:05.101Z,98688.41
2018-09-22T18:47:33.437Z,98695.24
2018-09-22T18:50:01.799Z,98692.50
2018-09-22T18:52:30.325Z,98700.55
2018-09-22T18:54:58.672Z,98694.68
2018-09-22T18:57:26.983Z,98694.67
2018-09-22T18:59:55.374Z,98684.20
2018-09-22T19:02:23.814Z,98679.48
2018-09-22T19:04:52.128Z,98688.31
2018-09-22T19:07:20.397Z,98683.13
2018-09-22T19:09:48.747Z,98683.75
2018-09-22T19:12:17.187Z,98697.17
2018-09-22T19:14:49.019Z,98700.56
2018-09-22T19:17:20.303Z,98700.70
2018-09-22T19:19:58.815Z,98690.81
2018-09-22T19:22:30.465Z,98691.55
2018-09-22T19:25:02.549Z,98704.47
2018-09-22T19:27:34.033Z,98694.81
2018-09-22T19:30:07.654Z,98701.88
2018-09-22T19:32:43.999Z,98698.96
2018-09-22T19:35:18.228Z,98702.07
2018-09-22T19:37:53.106Z,98716.31
2018-09-22T19:40:28.134Z,98700.59
2018-09-22T19:43:01.610Z,98701.33
2018-09-22T19:45:35.210Z,98699.92
2018-09-22T19:48:40.611Z,98701.19
2018-09-22T19:51:11.283Z,98696.56
2018-09-22T19:53:41.249Z,98706.95
2018-09-22T19:56:09.616Z,98700.81
2018-09-22T19:58:37.997Z,98691.63
2018-09-22T20:01:06.927Z,98690.00
2018-09-22T20:03:35.372Z,98684.75
2018-09-22T20:06:03.734Z,98689.92
2018-09-22T20:08:32.164Z,98692.48
2018-09-22T20:11:00.485Z,98703.80
2018-09-22T20:13:28.816Z,98704.13
2018-09-22T20:15:57.219Z,98700.11
2018-09-22T20:18:25.630Z,98685.66
2018-09-22T20:20:53.994Z,98686.56
2018-09-22T20:23:28.913Z,98690.08
2018-09-22T20:25:57.185Z,98689.32
2018-09-22T20:28:25.877Z,98690.09
2018-09-22T20:30:54.298Z,98691.36
2018-09-22T20:33:22.661Z,98683.53
2018-09-22T20:35:50.957Z,98689.44
2018-09-22T20:38:19.205Z,98688.95
2018-09-22T20:40:47.544Z,98687.77
2018-09-22T20:43:15.896Z,98683.49
2018-09-22T20:45:44.218Z,98681.67
2018-09-22T20:48:12.469Z,98682.45
2018-09-22T20:50:40.784Z,98689.51
2018-09-22T20:53:09.142Z,98684.68
2018-09-22T20:55:37.410Z,98679.92
2018-09-22T20:58:06.581Z,98688.13
2018-09-22T21:00:34.902Z,98674.53
2018-09-22T21:03:03.318Z,98671.69
2018-09-22T21:05:31.649Z,98685.84
2018-09-22T21:07:59.988Z,98686.85
2018-09-22T21:10:28.263Z,98679.78
2018-09-22T21:12:56.812Z,98677.66
2018-09-22T21:15:25.330Z,98690.37
2018-09-22T21:17:53.652Z,98686.95
2018-09-22T21:20:21.949Z,98688.05
2018-09-22T21:22:50.265Z,98687.84
2018-09-22T21:25:18.524Z,98677.74
2018-09-22T21:27:46.821Z,98668.11
2018-09-22T21:30:15.326Z,98673.22
2018-09-22T21:32:43.769Z,98661.56
2018-09-22T21:35:12.155Z,98648.37
2018-09-22T21:37:40.430Z,98650.81
2018-09-22T21:40:08.761Z,98660.41
2018-09-22T21:42:37.175Z,98667.30
2018-09-22T21:45:05.927Z,98671.95
2018-09-22T21:47:34.509Z,98661.85
2018-09-22T21:50:02.796Z,98659.66
2018-09-22T21:52:31.200Z,98661.77
2018-09-22T21:55:00.118Z,98663.33
2018-09-22T21:57:28.753Z,98666.54
2018-09-22T21:59:57.195Z,98664.06
2018-09-22T22:02:25.626Z,98664.44
2018-09-22T22:04:54.030Z,98672.40
2018-09-22T22:07:22.443Z,98683.41
2018-09-22T22:09:50.719Z,98676.56
2018-09-22T22:12:20.030Z,98680.27
2018-09-22T22:14:48.576Z,98689.70
2018-09-22T22:17:17.192Z,98682.10
2018-09-22T22:19:45.859Z,98681.98
2018-09-22T22:22:14.717Z,98678.39
2018-09-22T22:24:43.227Z,98675.59
2018-09-22T22:27:11.874Z,98667.92
2018-09-22T22:29:40.671Z,98666.25
2018-09-22T22:32:09.215Z,98671.83
2018-09-22T22:34:37.688Z,98670.89
2018-09-22T22:37:06.136Z,98670.52
2018-09-22T22:39:34.634Z,98668.23
2018-09-22T22:42:03.032Z,98671.48
2018-09-22T22:44:31.856Z,98671.84
2018-09-22T22:47:00.278Z,98671.64
2018-09-22T22:49:28.696Z,98671.73
2018-09-22T22:51:57.135Z,98667.97
2018-09-22T22:54:25.544Z,98666.99
2018-09-22T22:56:53.847Z,98676.42
2018-09-22T22:59:22.299Z,98675.30
2018-09-22T23:01:53.758Z,98673.53
2018-09-22T23:04:22.477Z,98667.73
2018-09-22T23:06:50.776Z,98668.02
2018-09-22T23:09:19.133Z,98664.30
2018-09-22T23:11:47.610Z,98661.14
2018-09-22T23:14:16.028Z,98658.41
2018-09-22T23:16:44.367Z,98662.84
2018-09-22T23:19:12.824Z,98662.66
2018-09-22T23:21:41.344Z,98670.69
2018-09-22T23:24:09.692Z,98659.15
2018-09-22T23:26:38.068Z,98657.34
2018-09-22T23:29:06.515Z,98648.91
2018-09-22T23:31:34.850Z,98648.48
2018-09-22T23:34:03.233Z,98643.66
2018-09-22T23:36:32.054Z,98644.39
2018-09-22T23:39:00.393Z,98639.11
2018-09-22T23:41:29.960Z,98637.08
2018-09-22T23:43:58.481Z,98632.45
2018-09-22T23:46:26.854Z,98635.66
2018-09-22T23:48:57.318Z,98633.19
2018-09-22T23:51:26.598Z,98641.20
2018-09-22T23:53:54.976Z,98641.78
2018-09-22T23:56:23.300Z,98636.98
2018-09-22T23:58:51.744Z,98634.52
